createdAt,value
2022-11-22T00:04:13.566Z,2.49
2022-11-22T00:09:14.933Z,2.53
2022-11-22T00:14:16.394Z,2.54
2022-11-22T00:19:17.768Z,2.58
2022-11-22T00:24:19.240Z,2.63
2022-11-22T00:29:21.060Z,2.67
2022-11-22T00:34:22.219Z,2.7
2022-11-22T00:39:23.733Z,2.76
2022-11-22T00:44:25.174Z,2.82
2022-11-22T00:49:27.743Z,2.86
2022-11-22T00:54:29.136Z,2.9
2022-11-22T00:59:31.265Z,2.98
2022-11-22T01:04:32.469Z,3.05
2022-11-22T01:09:34.623Z,3.09
2022-11-22T01:14:35.841Z,3.11
2022-11-22T01:19:37.863Z,3.17
2022-11-22T01:24:39.810Z,3.24
2022-11-22T01:29:41.308Z,3.25
2022-11-22T01:34:42.574Z,3.25
2022-11-22T01:39:44.408Z,3.27
2022-11-22T01:44:45.871Z,3.28
2022-11-22T01:49:47.320Z,3.31
2022-11-22T01:54:48.776Z,3.34
2022-11-22T01:59:50.368Z,3.36
2022-11-22T02:04:52.355Z,3.42
2022-11-22T02:09:53.761Z,3.47
2022-11-22T02:14:55.039Z,3.5
2022-11-22T02:19:56.968Z,3.58
2022-11-22T02:24:58.785Z,3.66
2022-11-22T02:30:00.431Z,3.73
2022-11-22T02:35:01.623Z,3.75
2022-11-22T02:40:03.255Z,3.82
2022-11-22T02:45:04.534Z,3.89
2022-11-22T02:50:05.921Z,3.89
2022-11-22T02:55:07.908Z,3.9
2022-11-22T03:00:09.802Z,3.93
2022-11-22T03:05:11.104Z,4.01
2022-11-22T03:10:12.909Z,4.06
2022-11-22T03:15:14.654Z,4.11
2022-11-22T03:20:16.333Z,4.17
2022-11-22T03:25:17.949Z,4.21
2022-11-22T03:30:20.006Z,4.25
2022-11-22T03:35:21.164Z,4.32
2022-11-22T03:40:22.858Z,4.41
2022-11-22T03:45:25.013Z,4.5
2022-11-22T03:50:27.055Z,4.55
2022-11-22T03:55:28.784Z,4.64
2022-11-22T04:00:30.367Z,4.71
2022-11-22T04:05:31.633Z,4.8
2022-11-22T04:10:33.339Z,4.88
2022-11-22T04:15:35.260Z,4.98
2022-11-22T04:20:36.975Z,5.1
2022-11-22T04:25:38.645Z,5.18
2022-11-22T04:30:40.572Z,5.25
2022-11-22T04:35:42.302Z,5.34
2022-11-22T04:40:43.727Z,5.43
2022-11-22T04:45:45.569Z,5.47
2022-11-22T04:50:46.920Z,5.54
2022-11-22T04:55:48.446Z,5.61
2022-11-22T05:00:50.121Z,5.66
2022-11-22T05:05:51.468Z,5.67
2022-11-22T05:10:53.165Z,5.74
2022-11-22T05:15:54.764Z,5.8
2022-11-22T06:01:08.205Z,6.15
2022-11-22T06:21:14.472Z,6.24
2022-11-22T06:26:16.448Z,6.28
2022-11-22T06:31:18.213Z,6.33
2022-11-22T06:41:22.100Z,6.34
2022-11-22T06:46:23.384Z,6.36
2022-11-22T06:51:24.566Z,6.41
2022-11-22T06:56:25.841Z,6.42
2022-11-22T07:01:27.893Z,6.46
2022-11-22T07:06:29.442Z,6.51
2022-11-22T07:11:30.836Z,6.57
2022-11-22T07:16:32.319Z,6.61
2022-11-22T07:21:34.165Z,6.67
2022-11-22T07:26:35.627Z,6.72
2022-11-22T07:31:37.623Z,6.76
2022-11-22T07:36:39.458Z,6.79
2022-11-22T07:41:41.292Z,6.84
2022-11-22T07:46:43.358Z,6.91
2022-11-22T07:51:45.382Z,6.93
2022-11-22T07:56:46.989Z,6.94
2022-11-22T08:01:48.797Z,6.99
2022-11-22T08:06:49.875Z,7.06
2022-11-22T08:11:51.279Z,7.13
2022-11-22T08:16:53.103Z,7.22
2022-11-22T08:21:58.420Z,7.33
2022-11-22T08:26:56.180Z,7.4
2022-11-22T08:31:57.566Z,7.47
2022-11-22T08:36:59.380Z,7.58
2022-11-22T08:42:01.062Z,7.69
2022-11-22T08:47:02.588Z,7.75
2022-11-22T08:52:04.509Z,7.83
2022-11-22T08:57:06.050Z,7.92
2022-11-22T09:02:07.904Z,7.98
2022-11-22T09:12:11.743Z,8.1
2022-11-22T09:17:17.492Z,8.18
2022-11-22T09:22:15.056Z,8.22
2022-11-22T09:27:17.059Z,8.29
2022-11-22T09:32:18.756Z,8.32
2022-11-22T09:37:20.822Z,8.37
2022-11-22T09:42:22.518Z,8.35
2022-11-22T09:47:24.422Z,8.39
2022-11-22T09:52:26.392Z,8.45
2022-11-22T09:57:28.017Z,8.41
2022-11-22T10:02:54.775Z,8.47
2022-11-22T10:07:38.047Z,8.51
2022-11-22T10:12:39.221Z,8.47
2022-11-22T10:17:40.741Z,8.46
2022-11-22T10:22:42.430Z,8.53
2022-11-22T10:27:43.708Z,8.64
2022-11-22T10:32:45.774Z,8.72
2022-11-22T10:37:47.407Z,8.8
2022-11-22T10:42:48.938Z,8.89
2022-11-22T10:47:51.138Z,8.97
2022-11-22T10:52:52.923Z,9.01
2022-11-22T10:57:55.017Z,9.1
2022-11-22T11:02:57.388Z,9.18
2022-11-22T11:08:09.415Z,9.22
2022-11-22T11:13:00.452Z,9.27
2022-11-22T11:18:01.673Z,9.33
2022-11-22T11:23:19.182Z,9.35
2022-11-22T11:28:05.485Z,9.24
2022-11-22T11:33:06.942Z,9.26
2022-11-22T11:38:08.178Z,9.3
2022-11-22T11:43:09.519Z,9.29
2022-11-22T11:48:11.273Z,9.25
2022-11-22T11:53:13.101Z,9.22
2022-11-22T11:58:17.589Z,9.22
2022-11-22T12:03:16.421Z,9.22
2022-11-22T12:08:18.001Z,9.26
2022-11-22T12:13:19.196Z,9.27
2022-11-22T12:18:21.306Z,9.22
2022-11-22T12:23:23.330Z,9.2
2022-11-22T12:28:25.430Z,9.22
2022-11-22T12:33:26.981Z,9.22
2022-11-22T12:38:28.024Z,9.14
2022-11-22T12:43:29.730Z,9.02
2022-11-22T12:48:31.116Z,8.93
2022-11-22T12:53:33.234Z,8.77
2022-11-22T12:58:35.164Z,8.62
2022-11-22T13:03:36.486Z,8.51
2022-11-22T13:08:38.341Z,8.43
2022-11-22T13:13:40.115Z,8.34
2022-11-22T13:18:41.947Z,8.33
2022-11-22T13:23:43.728Z,8.33
2022-11-22T13:28:45.726Z,8.21
2022-11-22T13:33:47.209Z,8.14
2022-11-22T13:38:49.326Z,8.14
2022-11-22T13:43:51.231Z,8.1
2022-11-22T13:48:53.084Z,8.02
2022-11-22T13:53:55.065Z,7.97
2022-11-22T13:58:57.208Z,7.83
2022-11-22T14:03:59.101Z,7.7
2022-11-22T14:09:00.898Z,7.61
2022-11-22T14:14:02.350Z,7.58
2022-11-22T14:19:04.227Z,7.55
2022-11-22T14:24:05.768Z,7.48
2022-11-22T14:29:07.653Z,7.49
2022-11-22T14:34:09.717Z,7.49
2022-11-22T14:39:11.189Z,7.48
2022-11-22T14:44:13.305Z,7.43
2022-11-22T14:49:15.122Z,7.42
2022-11-22T14:54:16.305Z,7.43
2022-11-22T14:59:18.414Z,7.4
2022-11-22T15:09:08.235Z,7.4
2022-11-22T15:09:39.221Z,7.41
2022-11-22T15:14:23.523Z,7.4
2022-11-22T15:59:37.462Z,7.18
2022-11-22T16:04:39.475Z,7.23
2022-11-22T16:09:41.429Z,7.28
2022-11-22T16:14:43.426Z,7.28
2022-11-22T16:19:45.230Z,7.3
2022-11-22T16:24:47.189Z,7.29
2022-11-22T16:29:49.100Z,7.28
2022-11-22T16:34:58.974Z,7.28
2022-11-22T16:39:52.300Z,7.31
2022-11-22T16:44:53.886Z,7.33
2022-11-22T16:49:55.921Z,7.34
2022-11-22T16:54:56.954Z,7.35
2022-11-22T16:59:58.955Z,7.38
2022-11-22T17:05:00.342Z,7.38
2022-11-22T17:10:01.530Z,7.38
2022-11-22T17:15:03.314Z,7.37
2022-11-22T17:20:04.824Z,7.37
2022-11-22T17:25:05.951Z,7.35
2022-11-22T17:30:07.134Z,7.35
2022-11-22T17:35:09.148Z,7.31
2022-11-22T17:40:10.461Z,7.2
2022-11-22T17:45:12.022Z,7.12
2022-11-22T17:50:13.501Z,7.07
2022-11-22T17:55:14.794Z,7.01
2022-11-22T18:00:15.917Z,6.86
2022-11-22T18:05:17.740Z,6.81
2022-11-22T18:10:19.302Z,6.78
2022-11-22T18:15:21.183Z,6.69
2022-11-22T18:20:23.107Z,6.6
2022-11-22T18:25:24.532Z,6.57
2022-11-22T18:30:25.855Z,6.55
2022-11-22T18:35:27.831Z,6.48
2022-11-22T18:40:29.779Z,6.43
2022-11-22T18:45:31.848Z,6.42
2022-11-22T18:50:33.301Z,6.41
2022-11-22T18:55:35.314Z,6.29
2022-11-22T19:00:36.657Z,6.25
2022-11-22T19:05:38.768Z,6.14
2022-11-22T19:10:39.851Z,6.04
2022-11-22T19:15:41.193Z,5.96
2022-11-22T19:20:58.364Z,5.93
2022-11-22T19:25:44.819Z,5.89
2022-11-22T19:30:46.074Z,5.8
2022-11-22T19:35:48.119Z,5.76
2022-11-22T19:40:49.686Z,5.73
2022-11-22T19:45:51.684Z,5.65
2022-11-22T19:50:53.569Z,5.6
2022-11-22T19:55:54.976Z,5.57
2022-11-22T20:26:05.824Z,5.31
2022-11-22T20:36:09.210Z,5.25
2022-11-22T20:46:12.178Z,5.15
2022-11-22T20:51:13.762Z,5.11
2022-11-22T20:56:15.626Z,5.08
2022-11-22T21:06:19.150Z,4.96
2022-11-22T21:16:23.664Z,4.9
2022-11-22T21:21:24.061Z,4.84
2022-11-22T21:26:25.960Z,4.85
2022-11-22T21:31:27.646Z,4.83
2022-11-22T21:36:29.237Z,4.77
2022-11-22T21:41:45.948Z,4.75
2022-11-22T21:46:31.908Z,4.73
2022-11-22T21:51:33.853Z,4.71
2022-11-22T21:56:35.648Z,4.71
2022-11-22T22:01:37.098Z,4.71
2022-11-22T22:06:41.268Z,4.71
2022-11-22T22:11:39.728Z,4.71
2022-11-22T22:16:41.175Z,4.69
2022-11-22T22:21:43.283Z,4.67
2022-11-22T22:26:44.821Z,4.69
2022-11-22T22:31:46.724Z,4.69
2022-11-22T22:36:48.227Z,4.71
2022-11-22T22:41:49.458Z,4.77
2022-11-22T22:46:51.463Z,4.8
2022-11-22T22:51:53.335Z,4.79
2022-11-22T22:56:54.829Z,4.82
2022-11-22T23:12:00.629Z,4.92
2022-11-22T23:17:01.638Z,5
2022-11-22T23:22:03.051Z,5.07
2022-11-22T23:27:05.033Z,5.09
2022-11-22T23:32:06.309Z,5.15
2022-11-22T23:37:08.028Z,5.2
2022-11-22T23:42:10.170Z,5.23
2022-11-22T23:47:11.334Z,5.26
2022-11-22T23:52:12.890Z,5.32
2022-11-22T23:57:14.775Z,5.4
